Time;durP1;ratioP1;P1;durP2;ratioP2;P2;SDS_P1;SDS_P2;PMS_P1;PMS_P2;Temp;Humidity;BMP_temperature;BMP_pressure;BME280_temperature;BME280_humidity;BME280_pressure;Samples;Min_cycle;Max_cycle;Signal;HPM_P1;HPM_P2
2021/05/21 00:00:27;;;;;;;0.88;0.00;;;14.30;99.10;;;;;;5036290;28;20021;-86
2021/05/21 00:02:52;;;;;;;1.48;0.00;;;13.80;98.60;;;;;;5054547;28;20124;-86
2021/05/21 00:05:18;;;;;;;4.00;0.30;;;13.80;98.70;;;;;;5056338;28;20059;-88
2021/05/21 00:07:44;;;;;;;0.00;0.00;;;13.90;99.10;;;;;;5076229;28;20020;-87
2021/05/21 00:10:10;;;;;;;1.65;0.28;;;14.00;99.00;;;;;;5093649;28;20028;-86
2021/05/21 00:12:36;;;;;;;3.85;0.00;;;13.90;99.40;;;;;;5077241;28;20020;-87
2021/05/21 00:15:04;;;;;;;0.50;0.00;;;13.70;99.90;;;;;;5065721;28;20017;-87
2021/05/21 00:17:30;;;;;;;0.57;0.00;;;13.80;99.90;;;;;;5059202;28;20033;-86
2021/05/21 00:19:55;;;;;;;0.73;0.13;;;13.60;99.90;;;;;;5037362;28;20031;-87
2021/05/21 00:22:21;;;;;;;0.55;0.35;;;15.70;99.90;;;;;;5050387;28;20032;-86
2021/05/21 00:24:47;;;;;;;2.83;0.00;;;13.60;99.90;;;;;;5063970;28;20412;-86
2021/05/21 00:27:12;;;;;;;1.15;0.00;;;13.50;99.90;;;;;;5053551;28;20086;-85
2021/05/21 00:29:38;;;;;;;2.88;0.00;;;13.40;99.90;;;;;;5039899;28;20021;-86
2021/05/21 00:32:04;;;;;;;0.55;0.00;;;13.20;99.90;;;;;;5057811;28;20028;-85
2021/05/21 00:34:29;;;;;;;1.67;0.00;;;13.40;99.90;;;;;;5045813;28;20017;-86
2021/05/21 00:36:55;;;;;;;0.35;0.00;;;13.30;99.90;;;;;;5058988;28;20025;-86
2021/05/21 00:39:21;;;;;;;0.20;0.00;;;14.40;99.90;;;;;;5059192;28;20029;-86
2021/05/21 00:41:47;;;;;;;1.90;0.15;;;13.20;99.90;;;;;;5040902;28;20489;-86
2021/05/21 00:44:13;;;;;;;2.00;0.25;;;13.20;99.90;;;;;;5062806;28;20402;-87
2021/05/21 00:46:39;;;;;;;5.65;0.38;;;13.10;99.90;;;;;;5063756;28;20025;-86
2021/05/21 00:49:05;;;;;;;4.30;0.22;;;13.10;99.90;;;;;;5062181;28;20030;-87
2021/05/21 00:51:32;;;;;;;7.13;0.73;;;14.50;99.90;;;;;;5098045;28;20074;-86
2021/05/21 00:53:58;;;;;;;9.73;1.13;;;14.60;99.90;;;;;;5097265;28;20020;-87
2021/05/21 00:56:25;;;;;;;6.53;0.40;;;16.80;99.90;;;;;;5087279;28;20394;-86
2021/05/21 00:58:51;;;;;;;9.00;0.43;;;12.10;99.90;;;;;;5046688;28;20020;-86
2021/05/21 01:01:17;;;;;;;8.88;0.65;;;16.00;99.90;;;;;;5039882;28;20115;-87
2021/05/21 01:03:43;;;;;;;10.10;0.20;;;11.80;99.90;;;;;;5039328;28;20021;-86
2021/05/21 01:06:11;;;;;;;11.40;1.17;;;14.80;99.90;;;;;;5041731;28;20039;-86
2021/05/21 01:08:37;;;;;;;12.02;0.30;;;12.30;99.90;;;;;;5083064;28;20043;-87
2021/05/21 01:11:05;;;;;;;11.90;1.00;;;9.50;99.90;;;;;;5054641;28;20019;-87
2021/05/21 01:13:31;;;;;;;10.60;1.02;;;12.40;99.90;;;;;;5060396;28;20020;-87
2021/05/21 01:15:56;;;;;;;9.35;0.40;;;12.60;99.90;;;;;;5072361;28;20028;-86
2021/05/21 01:18:22;;;;;;;13.00;0.63;;;15.20;99.90;;;;;;5063615;28;20032;-87
2021/05/21 01:20:47;;;;;;;12.27;0.88;;;12.40;99.90;;;;;;5092332;28;20065;-86
2021/05/21 01:23:13;;;;;;;27.70;1.83;;;11.60;99.90;;;;;;5038766;28;20078;-88
2021/05/21 01:25:39;;;;;;;8.68;0.47;;;12.40;99.90;;;;;;5057534;28;20110;-86
2021/05/21 01:28:05;;;;;;;10.43;0.93;;;12.20;99.90;;;;;;5058134;28;20477;-87
2021/05/21 01:30:31;;;;;;;7.20;0.25;;;12.50;99.90;;;;;;5079750;28;20016;-87
2021/05/21 01:33:06;;;;;;;11.23;0.70;;;11.70;99.90;;;;;;5096600;28;20511;-87
2021/05/21 01:35:32;;;;;;;6.97;0.52;;;12.10;99.90;;;;;;5078599;28;20122;-87
2021/05/21 01:37:57;;;;;;;4.80;0.75;;;12.70;99.90;;;;;;5058441;28;20021;-88
2021/05/21 01:40:23;;;;;;;10.20;0.75;;;12.90;99.90;;;;;;5052925;28;20031;-88
2021/05/21 01:42:49;;;;;;;13.40;0.85;;;12.00;99.90;;;;;;5057077;28;20032;-88
2021/05/21 01:45:15;;;;;;;16.85;2.15;;;11.90;99.90;;;;;;5057543;28;20028;-88
2021/05/21 01:47:41;;;;;;;5.82;0.30;;;11.80;99.90;;;;;;5041006;28;20025;-89
2021/05/21 01:50:10;;;;;;;11.73;0.50;;;11.80;99.90;;;;;;5072277;28;20032;-87
2021/05/21 01:52:36;;;;;;;;;;;11.80;99.90;;;;;;5081113;28;20044;-89
2021/05/21 01:55:02;;;;;;;15.13;1.38;;;11.80;99.90;;;;;;5038377;28;19908;-89
2021/05/21 01:57:28;;;;;;;9.85;0.60;;;11.80;99.90;;;;;;5038110;28;20403;-89
2021/05/21 01:59:54;;;;;;;9.23;0.28;;;14.60;99.90;;;;;;5071533;28;20021;-87
2021/05/21 02:02:19;;;;;;;11.30;1.13;;;14.10;99.90;;;;;;5043457;28;20470;-87
2021/05/21 02:04:45;;;;;;;16.77;1.50;;;13.10;99.90;;;;;;5037620;28;20075;-88
2021/05/21 02:07:15;;;;;;;6.93;0.25;;;14.70;99.90;;;;;;5037851;28;20474;-90
2021/05/21 02:09:58;;;;;;;13.13;0.65;;;11.60;99.90;;;;;;5088977;28;20040;-89
2021/05/21 02:12:28;;;;;;;11.15;0.40;;;11.60;99.90;;;;;;5072285;28;20477;-89
2021/05/21 02:14:55;;;;;;;17.45;2.38;;;13.10;99.90;;;;;;5039074;28;20045;-89
2021/05/21 02:17:21;;;;;;;10.40;0.73;;;11.60;99.90;;;;;;5037678;28;20091;-88
2021/05/21 02:19:46;;;;;;;8.75;0.35;;;11.60;99.90;;;;;;5083725;28;20419;-86
2021/05/21 02:22:13;;;;;;;13.63;1.45;;;11.50;99.90;;;;;;5082433;28;20095;-88
2021/05/21 02:24:39;;;;;;;12.70;0.55;;;11.40;99.90;;;;;;5058264;28;20052;-88
2021/05/21 02:27:06;;;;;;;5.45;0.88;;;11.80;99.90;;;;;;5046471;28;20390;-87
2021/05/21 02:29:31;;;;;;;10.98;0.90;;;11.50;99.90;;;;;;5071460;28;20013;-87
2021/05/21 02:31:59;;;;;;;7.78;1.05;;;14.60;99.90;;;;;;5058015;28;20044;-88
2021/05/21 02:34:25;;;;;;;7.72;0.88;;;15.10;99.90;;;;;;5058012;28;20020;-85
2021/05/21 02:36:50;;;;;;;6.35;0.52;;;10.60;99.90;;;;;;5048830;28;20363;-88
2021/05/21 02:39:16;;;;;;;18.33;1.33;;;11.30;99.90;;;;;;5054427;28;20370;-88
2021/05/21 02:41:42;;;;;;;13.32;1.50;;;14.20;99.90;;;;;;5095611;28;20446;-89
2021/05/21 02:44:07;;;;;;;9.15;1.00;;;11.10;99.90;;;;;;5077149;28;20020;-90
2021/05/21 02:46:33;;;;;;;17.55;1.60;;;12.40;99.90;;;;;;5056538;28;20496;-86
2021/05/21 02:48:58;;;;;;;13.27;1.20;;;14.30;99.90;;;;;;5057063;28;20021;-90
2021/05/21 02:51:24;;;;;;;13.60;0.68;;;11.10;99.90;;;;;;5037578;28;20420;-87
2021/05/21 02:53:52;;;;;;;14.85;0.55;;;11.00;99.90;;;;;;5054788;28;20021;-88
2021/05/21 02:56:18;;;;;;;11.68;0.38;;;11.10;99.90;;;;;;5044422;28;20020;-87
2021/05/21 02:58:44;;;;;;;11.95;1.38;;;10.80;99.90;;;;;;5060242;28;20016;-89
2021/05/21 03:01:09;;;;;;;20.30;1.05;;;10.60;99.90;;;;;;5037762;28;20025;-85
2021/05/21 03:03:35;;;;;;;10.95;0.85;;;10.80;99.90;;;;;;5054732;28;20390;-88
2021/05/21 03:06:00;;;;;;;13.32;1.33;;;13.90;99.90;;;;;;5064712;28;20071;-88
2021/05/21 03:08:26;;;;;;;21.33;0.85;;;10.90;99.90;;;;;;5039596;28;20021;-88
2021/05/21 03:10:52;;;;;;;17.23;2.05;;;10.60;99.90;;;;;;5053374;28;20052;-86
2021/05/21 03:13:17;;;;;;;13.68;0.85;;;10.40;99.90;;;;;;5054996;28;20450;-87
2021/05/21 03:15:44;;;;;;;18.48;0.70;;;10.80;99.90;;;;;;5057185;28;20807;-86
2021/05/21 03:18:14;;;;;;;16.65;1.45;;;10.70;99.90;;;;;;5057236;28;20441;-88
2021/05/21 03:20:41;;;;;;;14.90;0.40;;;10.70;99.90;;;;;;5094283;28;20032;-86
2021/05/21 03:23:07;;;;;;;14.77;2.17;;;10.50;99.90;;;;;;5076857;28;20445;-86
2021/05/21 03:25:33;;;;;;;13.85;1.35;;;10.50;99.90;;;;;;5074836;28;20035;-90
2021/05/21 03:27:59;;;;;;;13.70;1.33;;;10.20;99.90;;;;;;5038440;28;20021;-89
2021/05/21 03:30:25;;;;;;;14.25;1.92;;;14.10;99.90;;;;;;5078182;28;20028;-89
2021/05/21 03:32:50;;;;;;;12.23;0.25;;;10.10;99.90;;;;;;5085542;28;20020;-88
2021/05/21 03:35:16;;;;;;;18.90;1.90;;;10.60;99.90;;;;;;5094014;28;20046;-88
2021/05/21 03:37:41;;;;;;;24.77;2.90;;;10.30;99.90;;;;;;5037196;28;20025;-87
2021/05/21 03:40:08;;;;;;;13.48;1.33;;;10.20;99.90;;;;;;5036606;28;20021;-87
2021/05/21 03:42:33;;;;;;;13.77;2.03;;;10.60;99.90;;;;;;5036766;28;20025;-86
2021/05/21 03:44:59;;;;;;;14.73;1.13;;;10.50;99.90;;;;;;5053887;28;20025;-87
2021/05/21 03:47:25;;;;;;;12.60;0.75;;;10.40;99.90;;;;;;5054200;28;20024;-87
2021/05/21 03:49:51;;;;;;;9.55;1.00;;;8.60;99.90;;;;;;5074021;28;20534;-88
2021/05/21 03:52:17;;;;;;;13.13;0.40;;;13.20;99.90;;;;;;5056346;28;20020;-87
2021/05/21 03:54:42;;;;;;;26.00;1.75;;;10.00;99.90;;;;;;5056870;28;20492;-88
2021/05/21 03:57:08;;;;;;;20.73;1.60;;;10.30;99.90;;;;;;5057157;28;20024;-89
2021/05/21 03:59:34;;;;;;;11.38;0.85;;;10.60;99.90;;;;;;5074335;28;20492;-88
2021/05/21 04:01:59;;;;;;;14.10;1.38;;;10.40;99.90;;;;;;5058173;28;20032;-89
2021/05/21 04:04:25;;;;;;;17.73;1.30;;;10.50;99.90;;;;;;5060225;28;20020;-87
2021/05/21 04:06:51;;;;;;;8.80;0.95;;;10.50;99.90;;;;;;5099912;22;20385;-80
2021/05/21 04:09:16;;;;;;;14.05;0.65;;;9.90;99.90;;;;;;5091737;28;20028;-80
2021/05/21 04:11:42;;;;;;;18.92;1.65;;;9.70;99.90;;;;;;5083362;28;20012;-79
2021/05/21 04:14:07;;;;;;;12.45;0.85;;;10.60;99.90;;;;;;5092758;28;20025;-79
2021/05/21 04:16:33;;;;;;;15.73;1.20;;;10.70;99.90;;;;;;5082496;28;20377;-80
2021/05/21 04:18:59;;;;;;;9.23;0.50;;;10.70;99.90;;;;;;5057929;28;20020;-80
2021/05/21 04:21:25;;;;;;;13.13;1.30;;;10.70;99.90;;;;;;5061390;28;20168;-79
2021/05/21 04:23:53;;;;;;;17.25;1.08;;;10.70;99.90;;;;;;5042359;28;20604;-79
2021/05/21 04:26:18;;;;;;;17.98;1.23;;;10.80;99.90;;;;;;5041326;28;20028;-79
2021/05/21 04:28:48;;;;;;;9.75;0.38;;;10.90;99.90;;;;;;5059072;28;20021;-79
2021/05/21 04:31:15;;;;;;;5.13;0.10;;;10.80;99.90;;;;;;5060896;28;20493;-81
2021/05/21 04:33:41;;;;;;;14.02;0.75;;;10.90;99.90;;;;;;5044954;28;20367;-81
2021/05/21 04:36:07;;;;;;;7.13;1.20;;;10.90;99.90;;;;;;5044422;28;20031;-81
2021/05/21 04:38:32;;;;;;;10.98;1.45;;;11.00;99.90;;;;;;5044190;28;20025;-80
2021/05/21 04:40:58;;;;;;;12.88;1.13;;;11.00;99.90;;;;;;5082188;28;20115;-79
2021/05/21 04:43:25;;;;;;;10.30;0.60;;;11.00;99.90;;;;;;5062834;28;20024;-78
2021/05/21 04:45:51;;;;;;;10.80;1.17;;;11.10;99.90;;;;;;5061064;28;20025;-79
2021/05/21 04:48:17;;;;;;;14.63;0.88;;;11.30;99.90;;;;;;5062174;28;20054;-79
2021/05/21 04:50:42;;;;;;;13.48;1.33;;;11.10;99.90;;;;;;5060661;28;20036;-79
2021/05/21 04:53:08;;;;;;;8.93;0.22;;;11.20;99.90;;;;;;5080872;28;20027;-79
2021/05/21 04:55:33;;;;;;;14.98;0.80;;;11.30;99.90;;;;;;5061556;28;20130;-78
2021/05/21 04:57:59;;;;;;;7.55;1.10;;;11.30;99.90;;;;;;5061522;28;20063;-78
2021/05/21 05:00:25;;;;;;;17.60;1.17;;;11.40;99.90;;;;;;5064146;28;20032;-80
2021/05/21 05:02:50;;;;;;;13.82;0.75;;;11.50;99.90;;;;;;5058231;28;20017;-78
2021/05/21 05:05:16;;;;;;;12.38;0.68;;;11.50;99.90;;;;;;5042724;28;20029;-79
2021/05/21 05:07:41;;;;;;;12.55;0.38;;;11.60;99.90;;;;;;5040564;28;20032;-78
2021/05/21 05:10:07;;;;;;;12.35;1.42;;;11.70;99.90;;;;;;5053497;28;20039;-77
2021/05/21 05:12:33;;;;;;;10.25;1.15;;;11.70;99.90;;;;;;5075356;28;20020;-78
2021/05/21 05:14:58;;;;;;;15.85;0.65;;;11.80;99.90;;;;;;5059933;28;20012;-79
2021/05/21 05:17:24;;;;;;;9.07;0.90;;;12.50;99.90;;;;;;5061053;28;20020;-79
2021/05/21 05:19:49;;;;;;;6.05;0.15;;;11.80;99.90;;;;;;5050232;28;20024;-79
2021/05/21 05:22:15;;;;;;;9.13;0.63;;;12.90;99.90;;;;;;5040061;28;20032;-79
2021/05/21 05:24:40;;;;;;;9.95;1.13;;;11.90;99.90;;;;;;5057198;28;20044;-77
2021/05/21 05:27:09;;;;;;;10.40;0.52;;;11.80;99.90;;;;;;5059448;28;20025;-78
2021/05/21 05:29:35;;;;;;;15.43;1.15;;;12.10;99.90;;;;;;5040770;28;20039;-78
2021/05/21 05:32:04;;;;;;;9.55;0.95;;;12.10;99.90;;;;;;5058352;28;20021;-81
2021/05/21 05:34:30;;;;;;;20.80;1.13;;;12.10;99.90;;;;;;5042256;28;20021;-79
2021/05/21 05:36:56;;;;;;;6.13;0.45;;;12.20;99.90;;;;;;5060940;28;20029;-79
2021/05/21 05:39:22;;;;;;;10.50;1.20;;;12.40;99.90;;;;;;5039462;28;20027;-79
2021/05/21 05:41:51;;;;;;;11.90;0.70;;;12.50;99.90;;;;;;5059745;28;20025;-80
2021/05/21 05:44:18;;;;;;;8.75;1.10;;;12.60;99.90;;;;;;5042381;28;20111;-78
2021/05/21 05:46:43;;;;;;;9.50;0.65;;;12.70;99.90;;;;;;5056250;28;20474;-75
2021/05/21 05:49:09;;;;;;;8.43;1.15;;;12.80;99.90;;;;;;5071391;22;20023;-73
2021/05/21 05:51:34;;;;;;;22.52;1.15;;;12.70;99.90;;;;;;5086384;22;20049;-74
2021/05/21 05:54:00;;;;;;;10.55;0.65;;;12.70;99.90;;;;;;5075057;28;20025;-70
2021/05/21 05:56:25;;;;;;;10.55;1.02;;;12.70;99.90;;;;;;5074901;28;20028;-72
2021/05/21 05:58:51;;;;;;;7.55;0.63;;;12.70;99.90;;;;;;5080447;28;20070;-79
2021/05/21 06:01:17;;;;;;;11.98;1.20;;;12.60;99.90;;;;;;5077715;28;20016;-77
2021/05/21 06:03:42;;;;;;;9.68;0.75;;;12.60;99.90;;;;;;5077509;28;20024;-76
2021/05/21 06:06:08;;;;;;;6.70;1.48;;;12.70;99.90;;;;;;5095629;28;20039;-74
2021/05/21 06:08:34;;;;;;;14.43;0.75;;;12.70;99.30;;;;;;5076810;28;20024;-76
2021/05/21 06:11:00;;;;;;;11.68;0.88;;;12.80;99.70;;;;;;5056610;28;20028;-76
2021/05/21 06:13:26;;;;;;;12.45;0.82;;;12.80;99.80;;;;;;5074953;28;20048;-77
2021/05/21 06:15:52;;;;;;;5.75;0.50;;;12.80;99.40;;;;;;5074691;28;20496;-75
2021/05/21 06:18:18;;;;;;;10.75;0.93;;;12.80;97.50;;;;;;5074495;28;20028;-75
2021/05/21 06:20:43;;;;;;;16.65;0.98;;;12.80;97.50;;;;;;5074782;28;20025;-75
2021/05/21 06:23:12;;;;;;;9.80;0.30;;;12.80;97.30;;;;;;5079128;28;20016;-76
2021/05/21 06:28:11;;;;;;;7.38;0.57;;;12.70;96.80;;;;;;5057043;28;20037;-75
2021/05/21 06:30:37;;;;;;;12.20;0.65;;;12.70;96.50;;;;;;5054754;28;20017;-76
2021/05/21 06:33:03;;;;;;;12.93;1.05;;;12.80;96.00;;;;;;5061187;28;20027;-75
2021/05/21 06:35:29;;;;;;;8.98;1.05;;;12.90;96.50;;;;;;5073780;28;20032;-76
2021/05/21 06:37:55;;;;;;;11.48;0.60;;;12.90;94.90;;;;;;5091377;28;20077;-75
2021/05/21 06:40:21;;;;;;;10.48;0.45;;;12.90;92.90;;;;;;5052979;28;20486;-75
2021/05/21 06:42:47;;;;;;;7.88;0.82;;;12.90;93.60;;;;;;5055325;28;20051;-75
2021/05/21 06:45:13;;;;;;;11.27;1.67;;;13.00;95.90;;;;;;5070260;28;20027;-77
2021/05/21 06:47:39;;;;;;;5.03;0.45;;;13.10;94.60;;;;;;5054954;28;20036;-77
2021/05/21 06:50:06;;;;;;;11.23;0.73;;;13.10;93.50;;;;;;5036851;28;20474;-76
2021/05/21 06:52:31;;;;;;;10.75;0.32;;;13.20;92.10;;;;;;5054899;28;20032;-77
2021/05/21 06:54:57;;;;;;;13.25;0.90;;;13.40;91.60;;;;;;5073723;28;20470;-76
2021/05/21 06:57:22;;;;;;;8.73;1.13;;;13.60;90.30;;;;;;5056726;28;20116;-76
2021/05/21 06:59:48;;;;;;;23.98;2.13;;;13.90;90.50;;;;;;5074236;28;20028;-75
2021/05/21 07:02:14;;;;;;;10.82;1.13;;;14.00;88.20;;;;;;5074978;28;20024;-76
2021/05/21 07:04:40;;;;;;;8.73;0.40;;;14.00;86.70;;;;;;5072175;28;20035;-74
2021/05/21 07:07:05;;;;;;;13.25;1.23;;;14.10;88.50;;;;;;5076439;28;20032;-77
2021/05/21 07:09:31;;;;;;;9.57;1.25;;;14.10;86.40;;;;;;5094971;28;20028;-76
2021/05/21 07:12:00;;;;;;;5.13;1.02;;;13.90;86.90;;;;;;5076935;28;20057;-77
2021/05/21 07:14:25;;;;;;;;;;;13.90;86.20;;;;;;5077095;28;20055;-76
2021/05/21 07:16:51;;;;;;;6.00;0.40;;;13.80;87.90;;;;;;5094691;28;20323;-76
2021/05/21 07:19:18;;;;;;;8.63;0.70;;;13.70;87.10;;;;;;5095194;28;20024;-77
2021/05/21 07:21:44;;;;;;;17.90;0.70;;;13.60;89.10;;;;;;5067292;22;20041;-76
2021/05/21 07:24:10;;;;;;;10.70;0.68;;;13.50;89.50;;;;;;5043347;28;20017;-75
2021/05/21 07:26:36;;;;;;;13.45;0.63;;;13.70;86.50;;;;;;5070135;22;20451;-77
2021/05/21 07:29:07;;;;;;;14.80;0.50;;;16.30;88.90;;;;;;5059468;28;20025;-77
2021/05/21 07:31:34;;;;;;;19.02;1.10;;;13.80;88.10;;;;;;5077719;28;20088;-76
2021/05/21 07:34:00;;;;;;;12.10;0.70;;;13.80;86.80;;;;;;5068347;28;20038;-75
2021/05/21 07:36:30;;;;;;;13.70;0.93;;;13.80;87.90;;;;;;5096150;28;20024;-76
2021/05/21 07:39:03;;;;;;;5.75;0.38;;;13.80;88.50;;;;;;5078728;28;20023;-77
2021/05/21 07:41:29;;;;;;;8.05;0.40;;;13.80;87.70;;;;;;5078243;28;20051;-76
2021/05/21 07:43:56;;;;;;;13.18;0.95;;;13.80;89.00;;;;;;5073163;28;20020;-76
2021/05/21 07:46:27;;;;;;;3.85;0.30;;;13.80;91.10;;;;;;5075437;28;20029;-75
2021/05/21 07:48:53;;;;;;;5.15;0.50;;;13.90;88.60;;;;;;5074104;28;20033;-75
2021/05/21 07:51:22;;;;;;;10.98;0.50;;;13.90;88.60;;;;;;5059042;28;20033;-77
2021/05/21 07:53:51;;;;;;;7.97;1.30;;;14.00;88.30;;;;;;5076822;28;20025;-77
2021/05/21 07:56:16;;;;;;;7.03;0.63;;;14.00;85.70;;;;;;5057479;28;20505;-77
2021/05/21 07:58:44;;;;;;;12.10;0.77;;;13.80;83.90;;;;;;5089070;22;20152;-76
2021/05/21 08:01:09;;;;;;;15.23;0.82;;;13.90;85.40;;;;;;5056911;28;20051;-77
2021/05/21 08:03:35;;;;;;;6.25;0.85;;;13.90;84.80;;;;;;5075220;28;20465;-76
2021/05/21 08:06:01;;;;;;;9.95;0.65;;;13.90;84.60;;;;;;5082731;23;20103;-74
2021/05/21 08:08:27;;;;;;;11.32;0.50;;;13.70;86.50;;;;;;5035595;28;20040;-76
2021/05/21 08:10:55;;;;;;;6.40;0.13;;;13.80;87.70;;;;;;5035919;28;20021;-74
2021/05/21 08:13:21;;;;;;;7.30;1.13;;;13.90;85.40;;;;;;5050462;28;20021;-74
2021/05/21 08:15:47;;;;;;;12.38;0.65;;;13.80;86.20;;;;;;5065153;28;20029;-75
2021/05/21 08:18:12;;;;;;;12.25;0.90;;;13.60;88.80;;;;;;5072899;28;20116;-74
2021/05/21 08:20:39;;;;;;;8.40;0.40;;;13.30;91.00;;;;;;5057051;28;20078;-75
2021/05/21 08:23:05;;;;;;;12.15;0.68;;;13.20;92.70;;;;;;5087078;22;20517;-74
2021/05/21 08:25:31;;;;;;;8.38;0.63;;;13.20;92.90;;;;;;5057527;28;20028;-76
2021/05/21 08:28:06;;;;;;;5.25;0.20;;;13.40;91.90;;;;;;5085530;28;20534;-75
2021/05/21 08:30:35;;;;;;;11.07;0.90;;;13.70;91.60;;;;;;5057022;28;20024;-75
2021/05/21 08:33:00;;;;;;;6.00;0.00;;;14.00;88.50;;;;;;5074189;28;20024;-76
2021/05/21 08:35:30;;;;;;;6.32;0.88;;;14.10;83.80;;;;;;5073096;28;20480;-74
2021/05/21 08:37:59;;;;;;;5.97;0.38;;;14.10;85.90;;;;;;5074908;28;20519;-76
2021/05/21 08:40:28;;;;;;;7.40;0.20;;;14.40;84.50;;;;;;5076072;28;20050;-73
2021/05/21 08:42:58;;;;;;;3.88;0.20;;;14.70;84.30;;;;;;5062298;28;20044;-75
2021/05/21 08:45:30;;;;;;;8.38;0.93;;;14.80;83.30;;;;;;5080103;28;20047;-75
2021/05/21 08:47:57;;;;;;;4.53;0.38;;;14.70;82.90;;;;;;5080919;28;20115;-74
2021/05/21 08:50:23;;;;;;;4.78;0.85;;;14.50;85.10;;;;;;5081599;28;20017;-73
2021/05/21 08:52:49;;;;;;;7.15;0.75;;;14.40;86.90;;;;;;5058241;28;20021;-74
2021/05/21 08:55:15;;;;;;;7.80;0.95;;;14.20;89.10;;;;;;5075938;28;20086;-73
2021/05/21 08:57:42;;;;;;;9.75;0.65;;;14.00;89.40;;;;;;5058058;28;20024;-74
2021/05/21 09:00:08;;;;;;;6.28;0.25;;;13.70;92.00;;;;;;5061358;28;20384;-73
2021/05/21 09:02:34;;;;;;;8.57;1.52;;;13.70;93.70;;;;;;5078414;28;20024;-75
2021/05/21 09:05:01;;;;;;;11.70;0.63;;;13.80;93.10;;;;;;5068651;28;20112;-75
2021/05/21 09:07:31;;;;;;;9.98;1.15;;;14.00;92.50;;;;;;5076246;28;20024;-74
2021/05/21 09:10:27;;;;;;;6.60;0.20;;;14.00;91.90;;;;;;5058075;28;20028;-74
2021/05/21 09:12:53;;;;;;;9.05;0.28;;;14.20;91.50;;;;;;5041010;28;20543;-74
2021/05/21 09:15:21;;;;;;;11.18;0.43;;;14.10;89.20;;;;;;5058088;28;20020;-75
2021/05/21 09:17:58;;;;;;;7.22;0.20;;;13.80;87.90;;;;;;5058374;28;20358;-76
2021/05/21 09:20:44;;;;;;;5.45;0.68;;;13.60;88.70;;;;;;5076639;28;20024;-76
2021/05/21 09:23:12;;;;;;;5.53;0.32;;;13.60;90.30;;;;;;5057463;28;20448;-74
2021/05/21 09:25:50;;;;;;;6.65;0.10;;;13.60;88.60;;;;;;5082050;28;20017;-76
2021/05/21 09:28:43;;;;;;;8.48;1.23;;;13.50;90.00;;;;;;5078046;28;20024;-75
2021/05/21 09:31:21;;;;;;;7.88;0.70;;;13.60;89.20;;;;;;5078266;28;20477;-76
2021/05/21 09:33:53;;;;;;;5.53;0.30;;;13.70;90.70;;;;;;5058505;22;20052;-76
2021/05/21 09:36:31;;;;;;;10.10;0.38;;;13.80;90.40;;;;;;5075393;28;20452;-74
2021/05/21 09:38:58;;;;;;;6.13;0.52;;;13.70;90.10;;;;;;5070474;22;20439;-74
2021/05/21 09:41:25;;;;;;;5.90;0.50;;;13.60;91.00;;;;;;5070904;22;20049;-74
2021/05/21 09:43:56;;;;;;;7.00;0.55;;;13.50;91.20;;;;;;5057616;28;20385;-74
2021/05/21 09:46:22;;;;;;;6.03;0.30;;;13.50;91.80;;;;;;5094333;28;20019;-74
2021/05/21 09:48:49;;;;;;;9.35;1.70;;;13.70;92.20;;;;;;5096066;28;20020;-74
2021/05/21 09:51:19;;;;;;;5.32;0.82;;;13.90;91.40;;;;;;5095751;28;20043;-76
2021/05/21 09:53:46;;;;;;;6.63;0.55;;;14.10;90.20;;;;;;5096074;28;20031;-76
2021/05/21 09:56:20;;;;;;;3.55;0.30;;;14.10;90.60;;;;;;5064542;22;20037;-76
2021/05/21 09:58:46;;;;;;;4.18;0.80;;;14.30;91.30;;;;;;5038083;28;20029;-74
2021/05/21 10:01:20;;;;;;;8.55;0.35;;;14.30;90.20;;;;;;5055706;28;20120;-75
2021/05/21 10:03:52;;;;;;;9.93;0.50;;;14.40;90.30;;;;;;5041352;28;20028;-76
2021/05/21 10:06:18;;;;;;;5.78;0.43;;;14.50;90.20;;;;;;5076091;28;20021;-76
2021/05/21 10:08:48;;;;;;;8.68;0.75;;;14.60;90.30;;;;;;5075431;28;20035;-76
2021/05/21 10:11:15;;;;;;;10.82;1.08;;;14.70;88.20;;;;;;5076212;28;20091;-74
2021/05/21 10:13:42;;;;;;;7.15;0.45;;;14.80;88.20;;;;;;5057219;28;20466;-76
2021/05/21 10:16:10;;;;;;;11.43;0.85;;;14.80;87.60;;;;;;5076305;28;20509;-76
2021/05/21 10:18:37;;;;;;;7.13;0.50;;;14.80;87.80;;;;;;5074836;28;20097;-76
2021/05/21 10:21:03;;;;;;;13.45;0.60;;;14.80;87.20;;;;;;5075164;28;20103;-76
2021/05/21 10:23:42;;;;;;;9.43;0.65;;;14.60;86.10;;;;;;5074767;28;20066;-76
2021/05/21 10:26:12;;;;;;;9.30;0.63;;;14.60;88.40;;;;;;5074756;28;20035;-76
2021/05/21 10:28:44;;;;;;;7.78;1.10;;;14.60;87.70;;;;;;5074773;28;20028;-76
2021/05/21 10:31:12;;;;;;;4.93;0.28;;;14.80;83.60;;;;;;5056720;28;20021;-76
2021/05/21 10:33:39;;;;;;;5.45;0.08;;;15.00;80.70;;;;;;5056608;28;20104;-76
2021/05/21 10:36:23;;;;;;;8.10;0.30;;;15.30;79.50;;;;;;5074744;28;20020;-76
2021/05/21 10:39:19;;;;;;;6.65;0.77;;;15.50;77.70;;;;;;5074482;28;20043;-75
2021/05/21 10:41:55;;;;;;;4.45;0.20;;;15.70;76.60;;;;;;5074232;28;20343;-76
2021/05/21 10:44:22;;;;;;;4.05;0.15;;;16.10;79.80;;;;;;5074522;28;20025;-76
2021/05/21 10:46:50;;;;;;;7.38;0.22;;;16.20;76.90;;;;;;5074205;28;20024;-76
2021/05/21 10:49:27;;;;;;;6.45;0.22;;;16.10;77.30;;;;;;5056419;28;20069;-75
2021/05/21 10:51:54;;;;;;;7.25;0.20;;;16.00;79.80;;;;;;5089213;22;20053;-75
2021/05/21 10:54:46;;;;;;;3.90;0.20;;;15.70;79.20;;;;;;5056428;28;20051;-75
2021/05/21 10:57:12;;;;;;;6.82;0.85;;;15.90;79.10;;;;;;5058289;28;20031;-75
2021/05/21 10:59:43;;;;;;;11.75;0.75;;;16.10;80.70;;;;;;5070208;23;20051;-74
2021/05/21 11:02:10;;;;;;;11.48;1.13;;;16.10;79.20;;;;;;5074214;28;20367;-76
2021/05/21 11:04:36;;;;;;;8.25;0.10;;;16.10;78.10;;;;;;5089790;22;20056;-87
2021/05/21 11:07:03;;;;;;;7.78;0.68;;;16.10;80.40;;;;;;5058697;28;20032;-88
2021/05/21 11:09:30;;;;;;;7.30;1.65;;;19.00;79.00;;;;;;5076382;28;20016;-88
2021/05/21 11:12:03;;;;;;;3.97;0.25;;;19.50;73.80;;;;;;5055611;28;20043;-86
2021/05/21 11:14:46;;;;;;;5.28;0.40;;;17.30;74.30;;;;;;5038561;28;20021;-88
2021/05/21 11:17:14;;;;;;;3.13;0.13;;;16.80;70.30;;;;;;5057791;28;20050;-87
2021/05/21 11:19:45;;;;;;;4.65;0.10;;;16.60;70.60;;;;;;5058151;28;20028;-87
2021/05/21 11:22:31;;;;;;;7.82;0.30;;;16.40;67.40;;;;;;5058054;28;20036;-88
2021/05/21 11:24:59;;;;;;;0.85;0.00;;;16.30;68.40;;;;;;5057037;28;20060;-87
2021/05/21 11:27:27;;;;;;;17.67;0.55;;;16.10;71.40;;;;;;5057569;28;20452;-86
2021/05/21 11:29:53;;;;;;;2.83;0.15;;;19.00;74.60;;;;;;5058123;28;20059;-87
2021/05/21 11:32:22;;;;;;;2.55;0.00;;;19.80;71.20;;;;;;5075671;28;20036;-89
2021/05/21 11:34:48;;;;;;;0.93;0.10;;;19.50;71.10;;;;;;5057790;28;20025;-88
2021/05/21 11:37:34;;;;;;;4.60;0.52;;;16.00;70.90;;;;;;5057243;28;20370;-86
2021/05/21 11:40:06;;;;;;;5.47;0.00;;;16.30;74.20;;;;;;5075908;28;20040;-86
2021/05/21 11:42:32;;;;;;;4.65;0.00;;;16.40;71.70;;;;;;5057100;28;20070;-88
2021/05/21 11:45:01;;;;;;;3.95;0.22;;;16.50;71.10;;;;;;5057778;28;20040;-88
2021/05/21 11:47:30;;;;;;;4.97;0.20;;;16.80;68.90;;;;;;5058389;28;20062;-87
2021/05/21 11:49:57;;;;;;;3.08;0.20;;;17.00;69.00;;;;;;5043312;28;20024;-86
2021/05/21 11:52:23;;;;;;;7.85;0.52;;;17.10;67.10;;;;;;5039737;28;20013;-88
2021/05/21 11:54:49;;;;;;;3.47;0.60;;;19.10;69.50;;;;;;5051809;28;20402;-87
2021/05/21 11:57:18;;;;;;;3.10;0.10;;;17.20;70.20;;;;;;5052612;28;20390;-89
2021/05/21 11:59:45;;;;;;;3.45;0.32;;;17.80;70.20;;;;;;5070092;28;20039;-89
2021/05/21 12:02:16;;;;;;;6.32;0.38;;;16.70;69.80;;;;;;5048717;28;20021;-88
2021/05/21 12:04:44;;;;;;;12.68;0.43;;;16.60;70.50;;;;;;5047707;28;20056;-87
2021/05/21 12:07:27;;;;;;;6.75;0.20;;;16.40;72.10;;;;;;5049672;28;20025;-86
2021/05/21 12:10:02;;;;;;;4.18;0.45;;;16.20;72.80;;;;;;5056816;28;20028;-89
2021/05/21 12:12:30;;;;;;;7.70;0.55;;;15.90;72.40;;;;;;5057773;28;20013;-87
2021/05/21 12:15:12;;;;;;;6.82;0.20;;;16.20;75.00;;;;;;5081448;28;20051;-88
2021/05/21 12:17:44;;;;;;;5.82;1.13;;;15.30;79.90;;;;;;5062305;28;20001;-87
2021/05/21 12:20:11;;;;;;;5.18;0.10;;;15.10;90.00;;;;;;5058553;28;20032;-88
2021/05/21 12:22:36;;;;;;;2.40;0.15;;;14.80;93.90;;;;;;5059675;28;20036;-89
2021/05/21 12:25:20;;;;;;;4.80;0.52;;;14.70;95.70;;;;;;5062444;28;20021;-87
2021/05/21 12:27:46;;;;;;;4.18;0.10;;;14.90;96.30;;;;;;5060586;28;20067;-86
2021/05/21 12:30:14;;;;;;;1.77;0.05;;;15.10;93.80;;;;;;5044294;28;20070;-88
2021/05/21 12:32:40;;;;;;;3.10;0.10;;;15.50;94.00;;;;;;5041063;28;20052;-87
2021/05/21 12:35:10;;;;;;;3.05;0.00;;;17.70;92.40;;;;;;5059543;28;20021;-87
2021/05/21 12:37:43;;;;;;;;;;;16.10;87.90;;;;;;5040810;28;20025;-88
2021/05/21 12:40:11;;;;;;;2.90;0.45;;;16.80;89.10;;;;;;5070767;28;19952;-89
2021/05/21 12:42:54;;;;;;;5.80;0.20;;;16.30;86.90;;;;;;5048697;28;20040;-87
2021/05/21 12:45:20;;;;;;;1.23;0.13;;;16.20;88.70;;;;;;5040350;28;20043;-87
2021/05/21 12:47:50;;;;;;;5.30;0.30;;;16.50;86.90;;;;;;5074834;28;20024;-88